Time;durP1;ratioP1;P1;durP2;ratioP2;P2;SDS_P1;SDS_P2;PMS_P1;PMS_P2;Temp;Humidity;BMP_temperature;BMP_pressure;BME280_temperature;BME280_humidity;BME280_pressure;Samples;Min_cycle;Max_cycle;Signal;HPM_P1;HPM_P2
2024/02/02 00:00:58;;;;;;;32.15;27.55;;;;;;;4.17;100.00;97601.22;5074835;28;20032;-67
2024/02/02 00:03:23;;;;;;;30.17;21.48;;;;;;;4.18;100.00;97599.47;5061672;28;20104;-67
2024/02/02 00:05:48;;;;;;;30.23;21.50;;;;;;;4.14;100.00;97603.94;5068525;28;20040;-67
2024/02/02 00:08:14;;;;;;;33.67;22.15;;;;;;;4.11;100.00;97601.47;5068067;28;20055;-67
2024/02/02 00:10:39;;;;;;;29.73;21.67;;;;;;;4.12;100.00;97610.97;5073410;28;20044;-67
2024/02/02 00:13:05;;;;;;;28.50;22.38;;;;;;;4.11;100.00;97606.66;5069178;28;20043;-67
2024/02/02 00:15:30;;;;;;;29.60;23.77;;;;;;;4.16;100.00;97613.41;5069348;28;20086;-67
2024/02/02 00:17:56;;;;;;;34.00;24.35;;;;;;;4.15;100.00;97609.09;5067220;28;20409;-67
2024/02/02 00:20:21;;;;;;;25.63;22.50;;;;;;;4.16;100.00;97613.41;5064723;28;20028;-67
2024/02/02 00:22:46;;;;;;;25.02;16.52;;;;;;;4.16;100.00;97613.41;5069142;28;20021;-67
2024/02/02 00:25:12;;;;;;;24.15;21.65;;;;;;;4.15;100.00;97619.53;5068725;28;20134;-67
2024/02/02 00:27:37;;;;;;;22.88;20.42;;;;;;;4.15;100.00;97629.94;5070689;28;20397;-67
2024/02/02 00:30:03;;;;;;;21.75;16.58;;;;;;;4.12;100.00;97626.63;5066045;28;20040;-67
2024/02/02 00:32:28;;;;;;;21.75;19.58;;;;;;;4.10;100.00;97628.44;5064949;28;20055;-67
2024/02/02 00:34:53;;;;;;;20.40;18.30;;;;;;;4.11;100.00;97628.34;5070490;28;20085;-67
2024/02/02 00:37:19;;;;;;;25.02;22.45;;;;;;;4.18;100.00;97630.75;5073997;28;20036;-67
2024/02/02 00:39:44;;;;;;;33.38;30.50;;;;;;;4.21;100.00;97626.28;5066815;28;20852;-67
2024/02/02 00:42:10;;;;;;;26.15;23.58;;;;;;;4.24;100.00;97622.72;5066189;28;20053;-67
2024/02/02 00:44:35;;;;;;;30.02;27.30;;;;;;;4.28;100.00;97625.13;5072675;28;20024;-67
2024/02/02 00:47:01;;;;;;;26.90;24.42;;;;;;;4.27;100.00;97628.66;5067252;28;20039;-66
2024/02/02 00:49:26;;;;;;;22.48;17.27;;;;;;;4.23;100.00;97626.25;5071611;28;20109;-67
2024/02/02 00:51:51;;;;;;;20.40;13.85;;;;;;;4.21;100.00;97623.66;5070549;28;20033;-67
2024/02/02 00:54:17;;;;;;;17.60;12.63;;;;;;;4.16;100.00;97621.22;5055613;28;20046;-67
2024/02/02 00:56:43;;;;;;;15.15;13.65;;;;;;;4.20;100.00;97627.19;5073336;28;20039;-67
2024/02/02 00:59:08;;;;;;;17.40;15.63;;;;;;;4.25;100.00;97625.25;5067004;28;20040;-67
2024/02/02 01:01:33;;;;;;;17.67;14.68;;;;;;;4.25;100.00;97625.25;5072033;28;20025;-67
2024/02/02 01:03:59;;;;;;;17.00;15.23;;;;;;;4.28;100.00;97625.13;5068891;28;20031;-67
2024/02/02 01:06:24;;;;;;;23.17;15.75;;;;;;;4.32;100.00;97625.06;5069181;28;20033;-67
2024/02/02 01:08:49;;;;;;;20.90;18.80;;;;;;;4.32;100.00;97622.44;5071301;28;20504;-67
2024/02/02 01:11:15;;;;;;;19.95;17.60;;;;;;;4.34;100.00;97634.50;5069264;28;20074;-67
2024/02/02 01:13:41;;;;;;;16.55;14.23;;;;;;;4.36;100.00;97635.31;5074316;28;20051;-67
2024/02/02 01:16:06;;;;;;;21.45;17.38;;;;;;;4.39;100.00;97634.34;5071340;28;20040;-67
2024/02/02 01:18:32;;;;;;;20.92;17.92;;;;;;;4.41;100.00;97635.16;5072731;28;20107;-67
2024/02/02 01:20:57;;;;;;;19.73;17.65;;;;;;;4.40;100.00;97633.44;5070752;28;20047;-67
2024/02/02 01:23:23;;;;;;;18.95;17.15;;;;;;;4.43;100.00;97636.81;5073647;28;20028;-67
2024/02/02 01:25:48;;;;;;;18.75;16.67;;;;;;;4.47;100.00;97636.69;5069614;28;20028;-67
2024/02/02 01:28:14;;;;;;;20.40;18.23;;;;;;;4.45;100.00;97639.34;5061902;28;20083;-67
2024/02/02 01:30:39;;;;;;;20.38;17.75;;;;;;;4.43;100.00;97646.38;5073014;28;20039;-67
2024/02/02 01:33:04;;;;;;;17.83;15.95;;;;;;;4.48;100.00;97641.00;5073563;28;20052;-67
2024/02/02 01:35:30;;;;;;;20.08;17.45;;;;;;;4.50;100.00;97645.22;5070038;28;20031;-67
2024/02/02 01:37:55;;;;;;;21.33;17.45;;;;;;;4.54;100.00;97649.44;5064124;28;20067;-67
2024/02/02 01:40:20;;;;;;;22.67;17.33;;;;;;;4.55;100.00;97653.75;5071199;28;20428;-67
2024/02/02 01:42:46;;;;;;;18.30;16.50;;;;;;;4.56;100.00;97647.63;5062745;28;20057;-67
2024/02/02 01:45:11;;;;;;;19.85;17.83;;;;;;;4.58;100.00;97655.38;5071899;28;20066;-67
2024/02/02 01:47:37;;;;;;;20.50;17.70;;;;;;;4.55;100.00;97658.97;5071448;28;20024;-67
2024/02/02 01:50:03;;;;;;;17.98;15.90;;;;;;;4.54;100.00;97656.41;5058721;28;20108;-67
2024/02/02 01:52:29;;;;;;;19.50;16.25;;;;;;;4.54;100.00;97659.88;5070444;28;20024;-67
2024/02/02 01:54:55;;;;;;;17.08;14.60;;;;;;;4.56;100.00;97660.69;5063705;28;20044;-67
2024/02/02 01:57:21;;;;;;;17.23;15.15;;;;;;;4.53;100.00;97663.41;5057743;28;20052;-67
2024/02/02 01:59:47;;;;;;;16.42;14.63;;;;;;;4.57;100.00;97667.59;5062758;28;20071;-67
2024/02/02 02:02:13;;;;;;;17.83;14.88;;;;;;;4.59;100.00;97665.78;5065554;28;20051;-67
2024/02/02 02:04:42;;;;;;;18.33;16.42;;;;;;;4.66;100.00;97662.94;5067487;28;20509;-67
2024/02/02 02:07:08;;;;;;;21.08;16.45;;;;;;;4.72;100.00;97670.53;5063050;28;20431;-67
2024/02/02 02:09:34;;;;;;;20.05;17.85;;;;;;;4.77;100.00;97666.00;5071861;28;20040;-67
2024/02/02 02:12:02;;;;;;;19.75;17.58;;;;;;;4.73;100.00;97664.41;5067723;28;20036;-67
2024/02/02 02:14:28;;;;;;;17.83;16.10;;;;;;;4.74;100.00;97668.72;5066738;28;20210;-67
2024/02/02 02:16:54;;;;;;;19.55;17.55;;;;;;;4.71;100.00;97667.09;5067833;28;20033;-67
2024/02/02 02:19:19;;;;;;;18.08;16.17;;;;;;;4.72;100.00;97680.97;5066112;28;20029;-67
2024/02/02 02:21:45;;;;;;;18.60;16.77;;;;;;;4.71;100.00;97682.75;5067836;28;20077;-67
2024/02/02 02:24:10;;;;;;;17.83;16.20;;;;;;;4.72;100.00;97676.63;5063627;28;20021;-67
2024/02/02 02:26:36;;;;;;;16.75;15.05;;;;;;;4.70;100.00;97683.66;5062438;28;20033;-67
2024/02/02 02:29:02;;;;;;;15.88;14.27;;;;;;;4.69;100.00;97681.94;5066610;28;20029;-67
2024/02/02 02:31:28;;;;;;;16.33;14.60;;;;;;;4.82;100.00;97677.13;5066648;28;20035;-67
2024/02/02 02:33:54;;;;;;;14.77;13.23;;;;;;;4.76;100.00;97666.06;5058978;28;20053;-67
2024/02/02 02:36:22;;;;;;;13.60;12.38;;;;;;;4.70;100.00;97678.44;5063003;28;20025;-67
2024/02/02 02:38:48;;;;;;;14.90;12.55;;;;;;;4.65;100.00;97687.31;5061532;28;20039;-67
2024/02/02 02:41:14;;;;;;;15.57;13.98;;;;;;;4.64;100.00;97673.44;5063006;28;20063;-67
2024/02/02 02:43:40;;;;;;;17.80;15.98;;;;;;;4.65;100.00;97671.66;5059757;28;20032;-67
2024/02/02 02:46:06;;;;;;;20.25;16.00;;;;;;;4.67;100.00;97675.94;5068868;28;20473;-67
2024/02/02 02:48:31;;;;;;;24.92;19.95;;;;;;;4.67;100.00;97664.63;5069368;28;20021;-67
2024/02/02 02:50:57;;;;;;;25.35;19.88;;;;;;;4.62;100.00;97669.19;5062073;28;20029;-67
2024/02/02 02:53:22;;;;;;;19.17;17.10;;;;;;;4.62;100.00;97661.34;5069715;28;20020;-67
2024/02/02 02:55:48;;;;;;;25.73;22.17;;;;;;;4.57;100.00;97667.59;5062469;28;20474;-67
2024/02/02 02:58:13;;;;;;;25.30;18.42;;;;;;;4.51;100.00;97659.97;5060637;28;20020;-67
2024/02/02 03:00:39;;;;;;;26.38;23.00;;;;;;;4.52;100.00;97661.66;5072944;28;20025;-67
2024/02/02 03:03:04;;;;;;;27.65;22.67;;;;;;;4.50;100.00;97662.66;5073902;28;20029;-67
2024/02/02 03:05:30;;;;;;;27.98;21.75;;;;;;;4.48;100.00;97654.88;5070098;28;20055;-67
2024/02/02 03:07:56;;;;;;;27.70;21.92;;;;;;;4.50;100.00;97660.88;5068090;28;20032;-67
2024/02/02 03:10:25;;;;;;;24.58;20.50;;;;;;;4.52;100.00;97653.84;5062203;28;20029;-67
2024/02/02 03:12:53;;;;;;;25.30;20.98;;;;;;;4.51;100.00;97653.91;5073733;28;20024;-67
2024/02/02 03:15:18;;;;;;;24.50;21.70;;;;;;;4.50;100.00;97653.06;5063440;28;20021;-67
2024/02/02 03:17:44;;;;;;;23.17;20.80;;;;;;;4.46;100.00;97648.84;5067789;28;20043;-67
2024/02/02 03:20:11;;;;;;;23.65;19.65;;;;;;;4.48;100.00;97654.88;5069515;28;20067;-67
2024/02/02 03:22:37;;;;;;;22.02;17.52;;;;;;;4.50;100.00;97650.44;5065373;28;20024;-67
2024/02/02 03:25:02;;;;;;;18.83;15.38;;;;;;;4.52;100.00;97639.97;5072134;28;20040;-68
2024/02/02 03:27:27;;;;;;;19.77;16.40;;;;;;;4.52;100.00;97635.59;5068610;28;20139;-67
2024/02/02 03:29:53;;;;;;;21.90;18.52;;;;;;;4.52;100.00;97645.19;5067488;28;20039;-67
2024/02/02 03:32:19;;;;;;;17.58;14.80;;;;;;;4.47;100.00;97641.91;5071438;28;20027;-67
2024/02/02 03:34:44;;;;;;;18.17;15.05;;;;;;;4.50;100.00;97644.41;5066336;28;20135;-67
2024/02/02 03:37:09;;;;;;;19.40;17.25;;;;;;;4.52;100.00;97647.78;5067997;28;20058;-67
2024/02/02 03:39:36;;;;;;;18.20;16.42;;;;;;;4.53;100.00;97652.97;5067832;28;20187;-67
2024/02/02 03:42:01;;;;;;;18.27;16.58;;;;;;;4.49;100.00;97655.75;5069168;28;20053;-67
2024/02/02 03:44:28;;;;;;;17.77;16.00;;;;;;;4.46;100.00;97656.69;5068140;28;20044;-67
2024/02/02 03:46:53;;;;;;;18.30;16.38;;;;;;;4.47;100.00;97650.56;5068814;28;20041;-67
2024/02/02 03:49:18;;;;;;;17.63;15.45;;;;;;;4.46;100.00;97663.69;5063531;28;20032;-67
2024/02/02 03:51:44;;;;;;;18.75;14.55;;;;;;;4.43;100.00;97656.81;5069697;28;20397;-67
2024/02/02 03:54:09;;;;;;;20.80;13.95;;;;;;;4.41;100.00;97654.22;5070474;28;20516;-67
2024/02/02 03:56:36;;;;;;;19.05;13.65;;;;;;;4.39;100.00;97650.84;5061709;28;20145;-67
2024/02/02 03:59:01;;;;;;;19.20;16.70;;;;;;;4.36;100.00;97657.94;5056263;28;20025;-67
2024/02/02 04:01:26;;;;;;;19.05;15.70;;;;;;;4.38;100.00;97661.34;5067687;28;20116;-67
2024/02/02 04:03:52;;;;;;;17.35;15.68;;;;;;;4.38;100.00;97650.91;5059634;28;20036;-67
2024/02/02 04:06:17;;;;;;;19.25;14.90;;;;;;;4.37;100.00;97651.81;5063401;28;20051;-67
2024/02/02 04:08:42;;;;;;;16.83;15.13;;;;;;;4.43;100.00;97654.19;5063788;28;20039;-67
2024/02/02 04:11:08;;;;;;;13.00;11.73;;;;;;;4.37;100.00;97650.03;5065162;28;20031;-67
2024/02/02 04:13:34;;;;;;;15.60;13.90;;;;;;;4.37;100.00;97646.59;5067194;28;20028;-67
2024/02/02 04:15:59;;;;;;;15.88;14.32;;;;;;;4.32;100.00;97640.72;5065793;28;20036;-67
2024/02/02 04:18:25;;;;;;;17.50;14.45;;;;;;;4.27;100.00;97643.47;5066959;28;20024;-67
2024/02/02 04:20:52;;;;;;;16.10;14.32;;;;;;;4.24;100.00;97643.59;5073374;28;20064;-67
2024/02/02 04:23:18;;;;;;;17.30;14.63;;;;;;;4.18;100.00;97638.56;5074119;28;20510;-67
2024/02/02 04:25:43;;;;;;;15.15;13.43;;;;;;;4.12;100.00;97637.03;5064861;28;20075;-67
2024/02/02 04:28:09;;;;;;;18.80;15.88;;;;;;;4.04;100.00;97639.06;5068113;28;20714;-67
2024/02/02 04:30:35;;;;;;;17.85;15.15;;;;;;;3.92;100.00;97635.97;5066038;28;20064;-67
2024/02/02 04:33:01;;;;;;;13.93;12.63;;;;;;;3.82;100.00;97631.97;5067786;28;20043;-67
2024/02/02 04:35:27;;;;;;;18.45;13.63;;;;;;;3.71;100.00;97640.16;5070946;28;20028;-67
2024/02/02 04:37:52;;;;;;;20.15;16.20;;;;;;;3.65;100.00;97628.22;5071858;28;20041;-67
2024/02/02 04:40:17;;;;;;;16.83;15.07;;;;;;;3.62;100.00;97636.09;5067538;28;20528;-67
2024/02/02 04:42:44;;;;;;;16.42;13.82;;;;;;;3.57;100.00;97632.81;5065576;28;20045;-67
2024/02/02 04:45:10;;;;;;;15.05;13.10;;;;;;;3.44;100.00;97630.63;5067389;28;20032;-67
2024/02/02 04:47:35;;;;;;;13.93;12.38;;;;;;;3.37;100.00;97623.88;5064222;28;20078;-66
2024/02/02 04:50:01;;;;;;;18.88;15.40;;;;;;;3.33;100.00;97624.06;5070020;28;20035;-66
2024/02/02 04:52:26;;;;;;;12.63;11.30;;;;;;;3.26;100.00;97621.63;5068824;28;20058;-67
2024/02/02 04:54:53;;;;;;;16.52;11.98;;;;;;;3.24;100.00;97617.38;5066266;28;20023;-67
2024/02/02 04:57:19;;;;;;;12.70;11.30;;;;;;;3.17;100.00;97615.84;5065279;28;20028;-67
2024/02/02 04:59:44;;;;;;;14.35;12.82;;;;;;;3.12;100.00;97616.03;5069275;28;20740;-67
2024/02/02 05:02:10;;;;;;;13.25;11.85;;;;;;;3.07;100.00;97617.91;5073685;28;20481;-67
2024/02/02 05:04:35;;;;;;;15.02;12.18;;;;;;;2.96;100.00;97623.44;5070794;28;20032;-67
2024/02/02 05:07:00;;;;;;;20.50;15.55;;;;;;;2.85;100.00;97619.44;5067705;28;20050;-67
2024/02/02 05:09:26;;;;;;;15.13;13.60;;;;;;;2.81;100.00;97624.75;5071277;28;20765;-67
2024/02/02 05:11:51;;;;;;;14.10;12.65;;;;;;;2.79;100.00;97623.97;5063842;28;20021;-67
2024/02/02 05:14:16;;;;;;;13.48;11.55;;;;;;;2.77;100.00;97626.63;5068870;28;20056;-67
2024/02/02 05:16:42;;;;;;;13.70;11.88;;;;;;;2.77;100.00;97617.94;5069547;28;20591;-67
2024/02/02 05:19:08;;;;;;;17.60;11.52;;;;;;;2.73;100.00;97622.38;5069988;28;20396;-67
2024/02/02 05:21:33;;;;;;;12.27;10.60;;;;;;;2.70;100.00;97625.94;5070666;28;20477;-66
2024/02/02 05:23:58;;;;;;;15.73;9.90;;;;;;;2.69;100.00;97624.25;5070102;28;20026;-67
2024/02/02 05:26:24;;;;;;;13.70;10.13;;;;;;;2.70;100.00;97622.47;5067805;28;20032;-67
2024/02/02 05:28:49;;;;;;;15.40;10.57;;;;;;;2.77;100.00;97623.16;5068559;28;20381;-67
2024/02/02 05:31:15;;;;;;;11.88;10.00;;;;;;;2.71;100.00;97621.59;5070245;28;20036;-67
2024/02/02 05:33:43;;;;;;;11.50;10.23;;;;;;;2.72;100.00;97626.75;5069901;28;20021;-67
2024/02/02 05:36:08;;;;;;;12.43;10.38;;;;;;;2.77;100.00;97630.97;5058223;28;20074;-67
2024/02/02 05:38:36;;;;;;;12.32;10.70;;;;;;;2.77;100.00;97617.94;5059601;28;20489;-67
2024/02/02 05:41:01;;;;;;;17.33;11.48;;;;;;;2.84;100.00;97624.66;5057802;28;20457;-67
2024/02/02 05:43:26;;;;;;;17.60;11.50;;;;;;;2.93;100.00;97615.72;5057251;28;20079;-67
2024/02/02 05:45:52;;;;;;;13.05;11.02;;;;;;;2.93;100.00;97620.94;5069800;28;20024;-67
2024/02/02 05:48:18;;;;;;;13.27;11.25;;;;;;;2.98;100.00;97614.69;5069570;28;20032;-67
2024/02/02 05:50:44;;;;;;;13.38;11.63;;;;;;;3.00;100.00;97612.91;5060422;28;20037;-67
2024/02/02 05:53:09;;;;;;;12.30;10.98;;;;;;;3.00;100.00;97615.50;5059273;28;20029;-67
2024/02/02 05:55:35;;;;;;;15.70;11.68;;;;;;;3.03;100.00;97629.31;5069174;28;20020;-67
2024/02/02 05:58:00;;;;;;;13.32;11.30;;;;;;;3.06;100.00;97629.22;5063464;28;20098;-67
2024/02/02 06:00:26;;;;;;;14.07;12.68;;;;;;;3.04;100.00;97637.09;5072491;28;20477;-67
2024/02/02 06:02:51;;;;;;;14.30;11.88;;;;;;;3.04;100.00;97637.09;5072235;28;20032;-67
2024/02/02 06:05:17;;;;;;;14.30;12.77;;;;;;;3.04;100.00;97644.03;5071934;28;20024;-67
2024/02/02 06:07:42;;;;;;;13.80;11.38;;;;;;;3.07;100.00;97633.50;5069487;28;20062;-67
2024/02/02 06:10:08;;;;;;;13.70;11.70;;;;;;;3.13;100.00;97652.41;5069409;28;20098;-67
2024/02/02 06:12:36;;;;;;;13.20;11.82;;;;;;;3.20;100.00;97649.59;5060928;28;20025;-67
2024/02/02 06:15:03;;;;;;;14.90;13.38;;;;;;;3.23;100.00;97654.72;5064542;28;20032;-67
2024/02/02 06:17:28;;;;;;;16.50;12.55;;;;;;;3.26;100.00;97649.44;5062790;28;20028;-67
2024/02/02 06:19:54;;;;;;;13.77;10.65;;;;;;;3.35;100.00;97649.13;5067134;28;20029;-67
2024/02/02 06:22:21;;;;;;;18.90;16.75;;;;;;;3.33;100.00;97658.75;5065948;28;20063;-67
2024/02/02 06:24:47;;;;;;;23.75;20.23;;;;;;;3.32;100.00;97653.59;5064351;28;20029;-67
2024/02/02 06:27:12;;;;;;;28.90;19.75;;;;;;;3.33;100.00;97652.69;5068537;28;20033;-67
2024/02/02 06:29:38;;;;;;;27.38;24.58;;;;;;;3.29;100.00;97649.31;5067287;28;20024;-67
2024/02/02 06:32:03;;;;;;;25.42;20.77;;;;;;;3.22;100.00;97643.47;5065293;28;20032;-67
2024/02/02 06:34:29;;;;;;;19.23;16.05;;;;;;;3.13;100.00;97644.59;5074889;28;20028;-67
2024/02/02 06:36:54;;;;;;;16.48;14.77;;;;;;;3.02;100.00;97649.28;5067511;28;20064;-66
2024/02/02 06:39:19;;;;;;;18.25;13.52;;;;;;;2.94;100.00;97643.44;5075176;28;20031;-66
2024/02/02 06:41:45;;;;;;;14.10;12.32;;;;;;;2.84;100.00;97646.34;5069800;28;20049;-67
2024/02/02 06:44:10;;;;;;;17.10;13.38;;;;;;;2.78;100.00;97643.94;5074174;28;20032;-66
2024/02/02 06:46:36;;;;;;;19.55;13.73;;;;;;;2.75;100.00;97644.00;5068177;28;20099;-67
2024/02/02 06:49:01;;;;;;;17.92;13.10;;;;;;;2.68;100.00;97638.16;5064581;28;20047;-68
2024/02/02 06:51:27;;;;;;;16.00;12.68;;;;;;;2.61;100.00;97643.56;5063869;28;20024;-66
2024/02/02 06:53:52;;;;;;;15.85;13.30;;;;;;;2.50;100.00;97647.31;5068736;28;20021;-66
2024/02/02 06:56:38;;;;;;;19.55;13.40;;;;;;;2.38;100.00;97652.88;5066861;28;20086;-67
2024/02/02 06:59:05;;;;;;;18.98;13.23;;;;;;;2.35;100.00;97655.56;5069713;28;20109;-66
2024/02/02 07:01:31;;;;;;;16.45;14.32;;;;;;;2.34;100.00;97654.69;5075557;28;20029;-66
2024/02/02 07:03:56;;;;;;;27.60;18.27;;;;;;;2.36;100.00;97657.28;5065597;28;20035;-66
2024/02/02 07:06:22;;;;;;;17.90;15.80;;;;;;;2.26;100.00;97657.50;5066190;28;20051;-67
2024/02/02 07:08:47;;;;;;;19.52;16.17;;;;;;;2.20;100.00;97660.28;5069385;28;20116;-66
2024/02/02 07:11:13;;;;;;;19.52;16.67;;;;;;;2.13;100.00;97666.56;5061105;28;20029;-67
2024/02/02 07:13:59;;;;;;;17.02;15.30;;;;;;;2.13;100.00;97662.19;5066806;28;20033;-69
2024/02/02 07:16:32;;;;;;;22.20;17.92;;;;;;;2.12;100.00;97665.69;5064913;28;20086;-67
2024/02/02 07:18:57;;;;;;;24.80;19.98;;;;;;;2.12;100.00;97665.69;5073846;28;20035;-68
2024/02/02 07:21:37;;;;;;;28.65;22.70;;;;;;;2.20;100.00;97668.09;5069450;28;20024;-67
2024/02/02 07:24:03;;;;;;;24.63;20.83;;;;;;;2.16;100.00;97674.25;5068851;28;20033;-66
2024/02/02 07:26:31;;;;;;;26.77;21.58;;;;;;;2.17;100.00;97670.78;5067506;28;20049;-66
2024/02/02 07:28:57;;;;;;;29.77;22.95;;;;;;;2.16;100.00;97679.47;5066038;28;20024;-65
2024/02/02 07:31:38;;;;;;;29.25;21.90;;;;;;;2.11;100.00;97684.78;5066120;28;20032;-65
2024/02/02 07:34:36;;;;;;;25.00;20.83;;;;;;;2.08;100.00;97686.59;5068494;28;20024;-66
2024/02/02 07:37:08;;;;;;;29.77;20.95;;;;;;;2.07;100.00;97692.69;5069602;28;20025;-65
2024/02/02 07:39:34;;;;;;;27.67;20.20;;;;;;;1.98;100.00;97686.84;5066702;28;20371;-66
2024/02/02 07:42:00;;;;;;;26.67;20.38;;;;;;;1.98;100.00;97680.78;5064939;28;20036;-66
2024/02/02 07:44:26;;;;;;;25.15;21.75;;;;;;;1.98;100.00;97679.03;5061555;28;20028;-66
2024/02/02 07:46:52;;;;;;;29.08;20.05;;;;;;;1.96;100.00;97686.03;5067939;28;20029;-66
2024/02/02 07:49:17;;;;;;;22.67;20.17;;;;;;;1.91;100.00;97682.69;5067312;28;20033;-67
2024/02/02 07:51:43;;;;;;;32.22;22.75;;;;;;;1.89;100.00;97681.88;5064508;28;20028;-67
2024/02/02 07:54:09;;;;;;;30.60;20.55;;;;;;;1.93;100.00;97685.25;5065023;28;20024;-67
2024/02/02 07:56:35;;;;;;;25.92;19.98;;;;;;;1.91;100.00;97682.69;5069398;28;20042;-66
2024/02/02 07:59:00;;;;;;;24.33;19.58;;;;;;;1.86;100.00;97680.22;5072101;28;20020;-67
2024/02/02 08:01:28;;;;;;;28.73;21.02;;;;;;;1.85;100.00;97677.63;5063474;28;20025;-66
2024/02/02 08:03:53;;;;;;;37.83;23.60;;;;;;;1.85;100.00;97681.09;5067145;28;20032;-66
2024/02/02 08:06:20;;;;;;;27.27;21.73;;;;;;;1.85;100.00;97680.25;5066374;28;20027;-66
2024/02/02 08:08:45;;;;;;;35.40;25.17;;;;;;;1.86;100.00;97680.22;5060274;28;20029;-67
2024/02/02 08:11:11;;;;;;;30.83;22.38;;;;;;;1.85;100.00;97693.22;5071182;28;20083;-66
2024/02/02 08:13:37;;;;;;;30.55;22.85;;;;;;;1.80;100.00;97700.28;5066751;28;20024;-66
2024/02/02 08:16:02;;;;;;;31.05;23.23;;;;;;;1.82;100.00;97706.28;5063644;28;20028;-66
2024/02/02 08:18:28;;;;;;;35.63;24.60;;;;;;;1.82;100.00;97701.97;5064307;28;20032;-66
2024/02/02 08:20:53;;;;;;;38.85;25.00;;;;;;;1.85;100.00;97708.81;5064683;28;20028;-66
2024/02/02 08:23:19;;;;;;;29.45;22.13;;;;;;;1.88;100.00;97702.69;5057484;28;20049;-66
2024/02/02 08:25:45;;;;;;;33.40;21.70;;;;;;;1.88;100.00;97700.09;5056089;28;20043;-67
2024/02/02 08:28:10;;;;;;;22.95;18.20;;;;;;;1.91;100.00;97703.47;5059190;28;20120;-67
2024/02/02 08:30:36;;;;;;;21.17;17.85;;;;;;;1.96;100.00;97711.13;5065054;28;20038;-66
2024/02/02 08:33:01;;;;;;;23.85;17.40;;;;;;;1.98;100.00;97706.75;5062431;28;20024;-66
2024/02/02 08:35:28;;;;;;;26.95;19.10;;;;;;;1.99;100.00;97714.53;5057124;28;20017;-67
2024/02/02 08:37:58;;;;;;;28.35;19.05;;;;;;;2.11;100.00;97721.16;5064448;28;20032;-66
2024/02/02 08:40:38;;;;;;;25.55;18.35;;;;;;;2.23;100.00;97729.53;5078428;28;20047;-67
2024/02/02 08:43:04;;;;;;;24.63;15.75;;;;;;;2.36;100.00;97741.31;5068117;28;20305;-67
2024/02/02 08:45:42;;;;;;;18.73;15.63;;;;;;;2.44;100.00;97751.50;5065414;28;20021;-66
2024/02/02 08:48:23;;;;;;;20.25;15.07;;;;;;;2.45;100.00;97758.41;5062258;28;20112;-66
2024/02/02 08:50:50;;;;;;;19.95;14.00;;;;;;;2.39;100.00;97761.19;5062430;28;20040;-66
2024/02/02 08:53:16;;;;;;;21.45;14.07;;;;;;;2.37;100.00;97773.38;5061928;28;20031;-66
2024/02/02 08:55:47;;;;;;;19.35;15.23;;;;;;;2.42;100.00;97768.88;5064349;28;20032;-66
2024/02/02 08:58:27;;;;;;;21.67;14.85;;;;;;;2.45;100.00;97780.97;5065551;28;20034;-66
2024/02/02 09:00:53;;;;;;;18.73;14.07;;;;;;;2.38;100.00;97772.47;5058528;28;20052;-66
2024/02/02 09:03:25;;;;;;;19.90;15.65;;;;;;;2.39;100.00;97774.19;5062178;28;20396;-68
2024/02/02 09:05:56;;;;;;;27.65;20.55;;;;;;;2.46;100.00;97780.06;5066857;28;20077;-66
2024/02/02 09:08:34;;;;;;;18.70;16.35;;;;;;;2.81;100.00;97776.53;5063213;28;20024;-67
2024/02/02 09:11:12;;;;;;;19.45;17.42;;;;;;;3.20;100.00;97774.56;5060837;28;20441;-66
2024/02/02 09:13:40;;;;;;;19.45;15.40;;;;;;;3.66;100.00;97773.19;5063560;28;20082;-67
2024/02/02 09:16:07;;;;;;;25.80;18.63;;;;;;;4.07;100.00;97764.06;5062514;28;20405;-67
2024/02/02 09:18:44;;;;;;;23.25;16.50;;;;;;;4.40;100.00;97764.69;5066612;28;20078;-67
2024/02/02 09:21:14;;;;;;;22.42;16.17;;;;;;;4.69;100.00;97757.63;5066054;28;20043;-66
2024/02/02 09:23:48;;;;;;;17.70;15.40;;;;;;;4.98;100.00;97750.47;5058238;28;20017;-67
2024/02/02 09:26:15;;;;;;;21.30;13.93;;;;;;;5.28;100.00;97744.19;5064599;28;20135;-67
2024/02/02 09:28:44;;;;;;;19.00;13.80;;;;;;;5.59;100.00;97724.69;5059483;28;20107;-67
2024/02/02 09:31:20;;;;;;;13.00;10.50;;;;;;;5.90;100.00;97710.41;5060766;28;20070;-67
2024/02/02 09:33:49;;;;;;;14.43;11.10;;;;;;;6.26;100.00;97706.31;5060966;28;20025;-67
2024/02/02 09:36:15;;;;;;;16.23;13.88;;;;;;;6.65;100.00;97678.47;5063896;28;20070;-67
2024/02/02 09:38:53;;;;;;;11.98;9.98;;;;;;;6.97;100.00;97670.94;5065530;28;20576;-67
2024/02/02 09:41:33;;;;;;;10.30;7.88;;;;;;;7.24;100.00;97657.47;5061142;28;20024;-67
2024/02/02 09:44:04;;;;;;;24.13;14.07;;;;;;;7.45;100.00;97653.81;5058148;28;20021;-67
2024/02/02 09:46:53;;;;;;;12.18;9.57;;;;;;;7.77;100.00;97658.41;5061530;28;20032;-67
2024/02/02 09:49:37;;;;;;;18.65;14.77;;;;;;;8.06;100.00;97650.84;5063444;28;20036;-67
2024/02/02 09:52:23;;;;;;;12.70;9.85;;;;;;;8.21;100.00;97643.13;5063500;28;20017;-67
2024/02/02 09:54:57;;;;;;;11.98;6.30;;;;;;;8.20;100.00;97637.03;5060037;28;20053;-67
2024/02/02 09:57:25;;;;;;;8.02;5.53;;;;;;;8.30;100.00;97646.13;5054407;28;20573;-67
2024/02/02 10:00:06;;;;;;;8.25;5.80;;;;;;;8.56;100.00;97656.19;5063576;28;20032;-68
2024/02/02 10:02:38;;;;;;;7.30;5.95;;;;;;;8.60;100.00;97648.09;5057819;28;20029;-67
2024/02/02 10:05:12;;;;;;;7.65;6.28;;;;;;;8.54;100.00;97645.78;5068067;28;20122;-68
2024/02/02 10:07:49;;;;;;;8.65;7.55;;;;;;;8.40;100.00;97650.88;5067119;28;20069;-67
2024/02/02 10:10:42;;;;;;;9.63;7.90;;;;;;;8.33;100.00;97650.34;5066290;28;20049;-68
2024/02/02 10:13:17;;;;;;;9.32;8.25;;;;;;;8.34;100.00;97653.84;5066707;28;20099;-67
2024/02/02 10:15:55;;;;;;;9.18;5.70;;;;;;;8.38;100.00;97652.75;5063836;28;20115;-67
2024/02/02 10:18:47;;;;;;;9.93;6.07;;;;;;;8.43;100.00;97643.72;5059880;28;20029;-67
2024/02/02 10:21:37;;;;;;;10.48;6.00;;;;;;;8.52;100.00;97639.78;5068402;28;20112;-68
2024/02/02 10:24:26;;;;;;;8.82;6.15;;;;;;;8.65;100.00;97634.72;5063011;28;20086;-68
2024/02/02 10:27:11;;;;;;;10.52;6.10;;;;;;;8.87;100.00;97638.81;5066280;28;20528;-67
2024/02/02 10:29:51;;;;;;;9.05;5.82;;;;;;;8.91;100.00;97631.59;5063490;28;20024;-68
2024/02/02 10:32:35;;;;;;;12.80;6.05;;;;;;;8.87;100.00;97634.41;5066700;28;20024;-67
2024/02/02 10:35:21;;;;;;;9.80;6.45;;;;;;;9.00;100.00;97626.69;5069028;28;20097;-67
2024/02/02 10:37:49;;;;;;;6.40;5.53;;;;;;;9.10;100.00;97608.63;5063805;28;20020;-68
2024/02/02 10:40:38;;;;;;;10.85;5.90;;;;;;;9.06;100.00;97609.75;5068482;28;20028;-67
2024/02/02 10:43:03;;;;;;;7.30;5.93;;;;;;;9.19;100.00;97612.53;5066022;28;20037;-67
2024/02/02 10:45:40;;;;;;;11.70;6.57;;;;;;;9.21;100.00;97604.56;5066419;28;20439;-67
2024/02/02 10:48:19;;;;;;;7.90;7.10;;;;;;;9.44;100.00;97612.00;5060393;28;20029;-67
2024/02/02 10:51:12;;;;;;;8.48;6.78;;;;;;;9.56;100.00;97605.19;5068528;28;20446;-68
2024/02/02 10:54:01;;;;;;;14.15;9.73;;;;;;;9.81;100.00;97597.63;5060619;28;20029;-67
2024/02/02 10:56:33;;;;;;;8.63;7.47;;;;;;;9.93;100.00;97599.56;5067504;28;20031;-67
2024/02/02 10:59:26;;;;;;;8.70;7.10;;;;;;;9.85;100.00;97586.84;5066711;28;20050;-68
2024/02/02 11:02:01;;;;;;;10.93;7.75;;;;;;;9.95;100.00;97573.16;5064671;28;20108;-68
2024/02/02 11:04:45;;;;;;;7.97;7.13;;;;;;;9.96;100.00;97559.91;5070111;28;20052;-68
2024/02/02 11:07:32;;;;;;;15.02;8.35;;;;;;;9.96;100.00;97541.47;5062727;28;20029;-68
2024/02/02 11:10:01;;;;;;;8.43;6.75;;;;;;;9.99;100.00;97522.88;5063561;28;20032;-68
2024/02/02 11:12:40;;;;;;;9.90;7.30;;;;;;;10.08;100.00;97491.69;5064740;28;20048;-68
2024/02/02 11:15:32;;;;;;;13.20;7.07;;;;;;;10.31;100.00;97477.09;5065514;28;20028;-68
2024/02/02 11:18:09;;;;;;;8.88;7.65;;;;;;;10.63;100.00;97495.31;5068580;28;20021;-68
2024/02/02 11:20:46;;;;;;;11.63;7.80;;;;;;;10.79;100.00;97505.72;5068468;28;20058;-69
2024/02/02 11:23:29;;;;;;;10.48;7.57;;;;;;;10.91;100.00;97506.69;5062355;28;20744;-68
2024/02/02 11:26:16;;;;;;;9.45;6.68;;;;;;;10.86;100.00;97522.81;5066845;28;20054;-68